Terminal Aerodrome Forecast
Issued by NWS Hastings, NE

Home | Current Version | Previous Version | Text Only | Print | Product List | Glossary On
Versions: 1 2 3 4 5 6 7 8 9 10 11 12 13 14 15 16 17
000
FTUS45 KGID 252320
TAFEAR
TAF
KEAR 252320Z 2600/2624 VRB03KT P6SM SCT050
     FM260200 VRB06KT P6SM VCTS SCT050CB
     FM260600 VRB06KT 5SM BR SCT050
     FM261400 06009KT P6SM SCT025
     FM261800 09011KT P6SM VCTS SCT035CB
     FM261900 09012KT P6SM VCTS BKN035CB
      AMD LTD TO CLD VIS AND WIND=

USA.gov is the U.S. government's official web portal to all federal, state and local government web resources and services.